createdAt,value
2023-03-27T00:00:30.659Z,22.1
2023-03-27T00:01:33.004Z,22.1
2023-03-27T00:02:35.414Z,22.1
2023-03-27T00:03:38.181Z,22.1
2023-03-27T00:04:40.587Z,22.1
2023-03-27T00:05:42.486Z,22.1
2023-03-27T00:06:44.574Z,22.1
2023-03-27T00:07:46.679Z,22.1
2023-03-27T00:08:48.794Z,22.1
2023-03-27T00:09:50.906Z,22.1
2023-03-27T00:10:53.011Z,22.1
2023-03-27T00:11:55.341Z,22.1
2023-03-27T00:12:57.153Z,22.1
2023-03-27T00:13:59.225Z,22.1
2023-03-27T00:15:01.292Z,22.1
2023-03-27T00:16:03.389Z,22.1
2023-03-27T00:17:05.314Z,22.1
2023-03-27T00:18:07.876Z,22.1
2023-03-27T00:19:10.017Z,22.1
2023-03-27T00:20:11.924Z,22.1
2023-03-27T00:21:14.152Z,22.1
2023-03-27T00:22:16.319Z,22.1
2023-03-27T00:23:18.208Z,22.1
2023-03-27T00:24:20.120Z,22.1
2023-03-27T00:25:21.814Z,22.1
2023-03-27T00:26:23.562Z,22.1
2023-03-27T00:27:25.678Z,22.2
2023-03-27T00:28:27.772Z,22.2
2023-03-27T00:29:29.901Z,22.2
2023-03-27T00:30:31.922Z,22.2
2023-03-27T00:31:34.115Z,22.2
2023-03-27T00:32:36.368Z,22.2
2023-03-27T00:33:38.696Z,22.2
2023-03-27T00:34:40.841Z,22.2
2023-03-27T00:35:42.868Z,22.2
2023-03-27T00:36:45.114Z,22.2
2023-03-27T00:37:46.405Z,22.2
2023-03-27T00:38:48.323Z,22.2
2023-03-27T00:39:50.514Z,22.2
2023-03-27T00:40:52.074Z,22.2
2023-03-27T00:41:54.371Z,22.2
2023-03-27T00:42:56.045Z,22.1
2023-03-27T00:43:58.052Z,22.1
2023-03-27T00:44:59.975Z,22.1
2023-03-27T00:46:02.069Z,22.1
2023-03-27T00:47:04.105Z,22.2
2023-03-27T00:48:06.047Z,22.2
2023-03-27T00:49:08.355Z,22.2
2023-03-27T00:50:10.076Z,22.2
2023-03-27T00:51:11.781Z,22.2
2023-03-27T00:52:13.866Z,22.2
2023-03-27T00:53:15.946Z,22.2
2023-03-27T00:54:17.875Z,22.2
2023-03-27T00:55:19.573Z,22.3
2023-03-27T00:56:21.291Z,22.3
2023-03-27T00:57:23.392Z,22.3
2023-03-27T00:58:25.115Z,22.3
2023-03-27T00:59:27.198Z,22.3
2023-03-27T01:00:28.869Z,22.3
2023-03-27T01:01:30.986Z,22.3
2023-03-27T01:02:33.552Z,22.3
2023-03-27T01:03:36.075Z,22.3
2023-03-27T01:04:38.631Z,22.2
2023-03-27T01:05:40.531Z,22.2
2023-03-27T01:06:42.838Z,22.2
2023-03-27T01:08:49.949Z,22.2
2023-03-27T01:09:52.059Z,22.2
2023-03-27T01:10:54.183Z,22.2
2023-03-27T01:11:57.110Z,22.2
2023-03-27T01:12:59.225Z,22.2
2023-03-27T01:14:01.335Z,22.2
2023-03-27T01:15:03.230Z,22.2
2023-03-27T01:16:05.518Z,22.2
2023-03-27T01:17:07.745Z,22.2
2023-03-27T01:18:09.874Z,22.3
2023-03-27T01:19:12.006Z,22.3
2023-03-27T01:20:14.189Z,22.3
2023-03-27T01:21:16.167Z,22.3
2023-03-27T01:22:18.242Z,22.3
2023-03-27T01:24:25.123Z,22.3
2023-03-27T01:25:27.193Z,22.3
2023-03-27T01:27:34.235Z,22.3
2023-03-27T01:28:40.046Z,22.3
2023-03-27T01:29:42.131Z,22.3
2023-03-27T01:30:44.010Z,22.3
2023-03-27T01:31:46.118Z,22.3
2023-03-27T01:32:48.413Z,22.3
2023-03-27T01:33:50.673Z,22.2
2023-03-27T01:35:57.744Z,22.2
2023-03-27T01:37:00.106Z,22.2
2023-03-27T01:38:02.173Z,22.2
2023-03-27T01:39:03.700Z,22.2
2023-03-27T01:40:05.787Z,22.2
2023-03-27T01:41:07.860Z,22.3
2023-03-27T01:42:09.964Z,22.3
2023-03-27T01:43:12.057Z,22.3
2023-03-27T01:44:13.945Z,22.3
2023-03-27T01:45:16.084Z,22.3
2023-03-27T01:46:18.301Z,22.3
2023-03-27T01:47:20.332Z,22.3
2023-03-27T01:48:22.605Z,22.3
2023-03-27T01:49:24.324Z,22.3
2023-03-27T01:50:26.460Z,22.3
2023-03-27T01:51:28.687Z,22.3
2023-03-27T01:52:30.699Z,22.3
2023-03-27T01:53:32.593Z,22.3
2023-03-27T01:54:34.699Z,22.3
2023-03-27T01:55:36.834Z,22.3
2023-03-27T01:56:39.060Z,22.3
2023-03-27T01:58:46.357Z,22.2
2023-03-27T01:59:48.537Z,22.2
2023-03-27T02:01:55.588Z,22.2
2023-03-27T02:02:57.645Z,22.2
2023-03-27T02:03:59.892Z,22.3
2023-03-27T02:05:01.867Z,22.3
2023-03-27T02:06:04.095Z,22.3
2023-03-27T02:07:06.084Z,22.3
2023-03-27T02:08:08.210Z,22.3
2023-03-27T02:09:10.288Z,22.3
2023-03-27T02:10:12.207Z,22.3
2023-03-27T02:11:14.081Z,22.3
2023-03-27T02:12:16.164Z,22.3
2023-03-27T02:13:18.306Z,22.4
2023-03-27T02:14:20.383Z,22.4
2023-03-27T02:16:27.372Z,22.4
2023-03-27T02:17:29.709Z,22.4
2023-03-27T02:18:31.881Z,22.4
2023-03-27T02:19:33.969Z,22.3
2023-03-27T02:20:35.889Z,22.3
2023-03-27T02:21:37.820Z,22.3
2023-03-27T02:22:40.215Z,22.3
2023-03-27T02:23:42.386Z,22.3
2023-03-27T02:24:44.169Z,22.3
2023-03-27T02:25:46.114Z,22.3
2023-03-27T02:26:48.047Z,22.3
2023-03-27T02:27:49.929Z,22.3
2023-03-27T02:28:52.032Z,22.3
2023-03-27T02:29:53.945Z,22.3
2023-03-27T02:32:01.272Z,22.3
2023-03-27T02:33:03.618Z,22.3
2023-03-27T02:34:05.772Z,22.3
2023-03-27T02:35:07.688Z,22.3
2023-03-27T02:37:14.785Z,22.4
2023-03-27T02:38:16.933Z,22.4
2023-03-27T02:39:19.136Z,22.4
2023-03-27T02:40:20.803Z,22.4
2023-03-27T02:41:22.933Z,22.4
2023-03-27T02:42:25.040Z,22.4
2023-03-27T02:43:26.908Z,22.3
2023-03-27T02:44:28.830Z,22.3
2023-03-27T02:45:31.022Z,22.3
2023-03-27T02:46:32.905Z,22.3
2023-03-27T02:47:35.144Z,22.3
2023-03-27T02:48:37.315Z,22.3
2023-03-27T02:49:39.394Z,22.3
2023-03-27T02:50:41.269Z,22.3
2023-03-27T02:51:43.172Z,22.3
2023-03-27T02:52:45.381Z,22.3
2023-03-27T02:53:47.716Z,22.3
2023-03-27T02:54:49.966Z,22.3
2023-03-27T02:55:52.101Z,22.3
2023-03-27T02:56:54.057Z,22.3
2023-03-27T02:57:55.968Z,22.3
2023-03-27T02:58:57.915Z,22.3
2023-03-27T03:00:00.056Z,22.4
2023-03-27T03:01:02.056Z,22.4
2023-03-27T03:02:04.336Z,22.4
2023-03-27T03:03:06.761Z,22.4
2023-03-27T03:04:09.408Z,22.4
2023-03-27T03:05:11.108Z,22.4
2023-03-27T03:06:13.186Z,22.3
2023-03-27T03:07:15.347Z,22.3
2023-03-27T03:08:17.279Z,22.3
2023-03-27T03:09:19.423Z,22.3
2023-03-27T03:10:21.547Z,22.3
2023-03-27T03:11:23.636Z,22.3
2023-03-27T03:12:25.404Z,22.3
2023-03-27T03:13:27.469Z,22.3
2023-03-27T03:14:28.980Z,22.2
2023-03-27T03:15:30.956Z,22.2
2023-03-27T03:16:32.775Z,22.2
2023-03-27T03:17:35.172Z,22.2
2023-03-27T03:18:37.462Z,22.2
2023-03-27T03:19:39.384Z,22.2
2023-03-27T03:20:41.294Z,22.2
2023-03-27T03:21:43.404Z,22.2
2023-03-27T03:22:45.277Z,22.2
2023-03-27T03:24:52.200Z,22.2
2023-03-27T03:25:54.374Z,22.2
2023-03-27T03:26:56.257Z,22.2
2023-03-27T03:27:58.352Z,22.2
2023-03-27T03:29:02.352Z,22.2
2023-03-27T03:30:04.251Z,22.1
2023-03-27T03:31:06.565Z,22.1
2023-03-27T03:32:08.905Z,22.1
2023-03-27T03:33:10.995Z,22.1
2023-03-27T03:34:12.876Z,22.1
2023-03-27T03:35:15.021Z,22.1
2023-03-27T03:36:17.114Z,22.1
2023-03-27T03:37:19.422Z,22.1
2023-03-27T03:38:21.681Z,22.1
2023-03-27T03:39:23.809Z,22.1
2023-03-27T03:40:25.826Z,22.1
2023-03-27T03:41:27.978Z,22.1
2023-03-27T03:42:29.665Z,22.1
2023-03-27T03:43:31.569Z,22.1
2023-03-27T03:44:33.661Z,22.1
2023-03-27T03:45:35.597Z,22.1
2023-03-27T03:46:38.053Z,22.1
2023-03-27T03:47:40.710Z,22.1
2023-03-27T03:48:43.119Z,22.1
2023-03-27T03:49:45.080Z,22.1
2023-03-27T03:50:47.013Z,22.1
2023-03-27T03:52:54.103Z,22.1
2023-03-27T03:53:55.997Z,22.1
2023-03-27T03:54:58.088Z,22
2023-03-27T03:56:00.090Z,22.1
2023-03-27T03:57:02.758Z,22.1
2023-03-27T03:58:05.453Z,22.1
2023-03-27T03:59:07.132Z,22.1
2023-03-27T04:00:09.195Z,22.1
2023-03-27T04:01:11.102Z,22
2023-03-27T04:02:13.440Z,22
2023-03-27T04:03:15.706Z,22
2023-03-27T04:04:18.076Z,22
2023-03-27T04:05:20.159Z,22
2023-03-27T04:06:22.580Z,22
2023-03-27T04:07:24.656Z,22
2023-03-27T04:08:26.777Z,22
2023-03-27T04:09:28.503Z,22
2023-03-27T04:10:30.587Z,22
2023-03-27T04:11:32.698Z,22
2023-03-27T04:12:34.863Z,22
2023-03-27T04:13:36.957Z,22
2023-03-27T04:14:39.028Z,22
2023-03-27T04:15:41.286Z,22
2023-03-27T04:16:43.113Z,22
2023-03-27T04:17:45.129Z,22
2023-03-27T04:18:47.612Z,22
2023-03-27T04:19:49.785Z,22
2023-03-27T04:20:51.857Z,22
2023-03-27T04:21:53.947Z,22
2023-03-27T04:22:56.012Z,22
2023-03-27T04:23:58.111Z,22
2023-03-27T04:24:59.624Z,22
2023-03-27T04:26:01.852Z,22
2023-03-27T04:27:03.979Z,22
2023-03-27T04:28:05.970Z,22
2023-03-27T04:29:08.131Z,22
2023-03-27T04:30:10.218Z,22
2023-03-27T04:31:12.192Z,22
2023-03-27T04:32:14.167Z,22
2023-03-27T04:33:16.320Z,22
2023-03-27T04:34:18.384Z,22
2023-03-27T04:35:20.474Z,22
2023-03-27T04:36:22.621Z,22
2023-03-27T04:37:24.920Z,22
2023-03-27T04:38:26.802Z,22
2023-03-27T04:39:28.788Z,22
2023-03-27T04:40:30.945Z,22
2023-03-27T04:41:33.040Z,22
2023-03-27T04:42:34.967Z,22
2023-03-27T04:43:37.375Z,22
2023-03-27T04:44:39.454Z,22
2023-03-27T04:45:41.354Z,22
2023-03-27T04:46:43.591Z,22
2023-03-27T04:47:45.719Z,22
2023-03-27T04:48:47.958Z,22
2023-03-27T04:49:50.030Z,22
2023-03-27T04:50:52.035Z,22
2023-03-27T04:51:54.831Z,22
2023-03-27T04:52:56.992Z,22
2023-03-27T04:53:58.932Z,22
2023-03-27T04:55:01.122Z,22
2023-03-27T04:56:02.929Z,22
2023-03-27T04:57:05.144Z,22
2023-03-27T04:58:07.547Z,22
2023-03-27T04:59:09.621Z,22
2023-03-27T05:00:11.318Z,22
2023-03-27T05:01:13.578Z,22
2023-03-27T05:02:15.649Z,22
2023-03-27T05:03:17.810Z,22
2023-03-27T05:04:20.022Z,22
2023-03-27T05:05:22.158Z,22
2023-03-27T05:06:24.289Z,22
2023-03-27T05:07:26.425Z,22
2023-03-27T05:08:28.122Z,22
2023-03-27T05:09:30.224Z,22
2023-03-27T05:10:32.343Z,22
2023-03-27T05:11:34.093Z,22
2023-03-27T05:12:36.243Z,22
2023-03-27T05:13:38.194Z,22
2023-03-27T05:14:40.333Z,22
2023-03-27T05:15:42.233Z,22
2023-03-27T05:16:44.508Z,22
2023-03-27T05:17:46.687Z,21.9
2023-03-27T05:18:48.936Z,21.9
2023-03-27T05:19:50.652Z,21.9
2023-03-27T05:20:52.714Z,21.9
2023-03-27T05:21:54.416Z,21.9
2023-03-27T05:22:56.544Z,21.9
2023-03-27T05:23:58.640Z,21.9
2023-03-27T05:25:00.534Z,21.9
2023-03-27T05:26:02.445Z,21.9
2023-03-27T05:27:04.142Z,21.9
2023-03-27T05:28:06.272Z,21.9
2023-03-27T05:29:08.219Z,21.9
2023-03-27T05:30:10.425Z,21.9
2023-03-27T05:31:12.429Z,21.9
2023-03-27T05:32:14.829Z,21.9
2023-03-27T05:33:16.930Z,21.9
2023-03-27T05:34:19.110Z,21.9
2023-03-27T05:35:21.338Z,21.9
2023-03-27T05:36:23.535Z,21.9
2023-03-27T05:38:30.610Z,21.9
2023-03-27T05:39:32.323Z,21.9
2023-03-27T05:40:34.435Z,21.9
2023-03-27T05:41:36.147Z,21.9
2023-03-27T05:42:38.071Z,21.9
2023-03-27T05:43:40.177Z,21.9
2023-03-27T05:44:42.372Z,21.9
2023-03-27T05:45:44.851Z,21.9
2023-03-27T05:46:47.020Z,21.9
2023-03-27T05:47:49.032Z,21.9
2023-03-27T05:48:50.866Z,21.9
2023-03-27T05:49:52.957Z,21.9
2023-03-27T05:50:55.692Z,21.9
2023-03-27T05:51:58.409Z,21.9
2023-03-27T05:53:00.317Z,21.9
2023-03-27T05:54:02.258Z,21.9
2023-03-27T05:55:04.387Z,21.9
2023-03-27T05:56:06.313Z,21.9
2023-03-27T05:57:08.388Z,21.9
2023-03-27T05:58:10.814Z,21.9
2023-03-27T05:59:12.958Z,21.9
2023-03-27T06:00:15.210Z,21.9
2023-03-27T06:01:17.284Z,21.9
2023-03-27T06:03:24.619Z,21.8
2023-03-27T06:04:27.334Z,21.9
2023-03-27T06:05:29.699Z,21.8
2023-03-27T06:06:31.652Z,21.8
2023-03-27T06:07:33.880Z,21.8
2023-03-27T06:08:35.992Z,21.8
2023-03-27T06:09:38.094Z,21.8
2023-03-27T06:10:40.174Z,21.8
2023-03-27T06:11:42.254Z,21.8
2023-03-27T06:12:44.148Z,21.8
2023-03-27T06:13:51.770Z,21.8
2023-03-27T06:14:53.773Z,21.8
2023-03-27T06:15:56.694Z,21.8
2023-03-27T06:16:59.772Z,21.8
2023-03-27T06:18:01.794Z,21.8
2023-03-27T06:19:03.647Z,21.8
2023-03-27T06:20:05.410Z,21.8
2023-03-27T06:21:07.539Z,21.8
2023-03-27T06:22:09.704Z,21.8
2023-03-27T06:23:11.801Z,21.8
2023-03-27T06:24:13.698Z,21.8
2023-03-27T06:25:16.375Z,21.8
2023-03-27T06:26:18.554Z,21.8
2023-03-27T06:27:20.452Z,21.8
2023-03-27T06:28:22.582Z,21.8
2023-03-27T06:29:24.507Z,21.8
2023-03-27T06:30:26.051Z,21.8
2023-03-27T06:31:28.404Z,21.8
2023-03-27T06:32:31.038Z,21.8
2023-03-27T06:33:33.266Z,21.8
2023-03-27T06:34:35.370Z,21.8
2023-03-27T06:35:37.577Z,21.8
2023-03-27T06:36:40.056Z,21.8
2023-03-27T06:37:42.227Z,21.8
2023-03-27T06:38:44.156Z,21.8
2023-03-27T06:39:46.271Z,21.8
2023-03-27T06:40:48.392Z,21.8
2023-03-27T06:41:50.593Z,21.8
2023-03-27T06:42:52.698Z,21.8
2023-03-27T06:43:54.805Z,21.8
2023-03-27T06:44:56.890Z,21.8
2023-03-27T06:45:59.692Z,21.8
2023-03-27T06:47:02.308Z,21.8
2023-03-27T06:49:09.389Z,21.8
2023-03-27T06:50:11.284Z,21.8
2023-03-27T06:51:13.191Z,21.8
2023-03-27T06:52:15.412Z,21.8
2023-03-27T06:54:22.538Z,21.8
2023-03-27T06:55:24.436Z,21.8
2023-03-27T06:56:26.545Z,21.8
2023-03-27T06:57:28.468Z,21.8
2023-03-27T06:58:30.568Z,21.8
2023-03-27T06:59:32.471Z,21.8
2023-03-27T07:00:34.550Z,21.8
2023-03-27T07:01:36.491Z,21.8
2023-03-27T07:02:38.636Z,21.8
2023-03-27T07:03:40.687Z,21.8
2023-03-27T07:05:47.964Z,21.8
2023-03-27T07:06:50.245Z,21.8
2023-03-27T07:07:51.761Z,21.8
2023-03-27T07:08:54.133Z,21.8
2023-03-27T07:09:56.129Z,21.8
2023-03-27T07:12:03.302Z,21.8
2023-03-27T07:13:05.498Z,21.8
2023-03-27T07:14:07.410Z,21.8
2023-03-27T07:15:09.548Z,21.8
2023-03-27T07:16:11.597Z,21.8
2023-03-27T07:17:14.057Z,21.8
2023-03-27T07:18:16.184Z,21.8
2023-03-27T07:19:18.471Z,21.8
2023-03-27T07:20:20.188Z,21.8
2023-03-27T07:21:22.104Z,21.8
2023-03-27T07:22:24.218Z,21.8
2023-03-27T07:23:26.206Z,21.8
2023-03-27T07:24:28.216Z,21.7
2023-03-27T07:25:30.346Z,21.7
2023-03-27T07:26:32.459Z,21.7
2023-03-27T07:27:34.679Z,21.7
2023-03-27T07:28:36.586Z,21.8
2023-03-27T07:29:38.307Z,21.7
2023-03-27T07:30:40.432Z,21.7
2023-03-27T07:32:47.639Z,21.7
2023-03-27T07:33:50.569Z,21.8
2023-03-27T07:34:53.032Z,21.7
2023-03-27T07:35:55.622Z,21.7
2023-03-27T07:36:58.403Z,21.7
2023-03-27T07:38:00.562Z,21.7
2023-03-27T07:39:02.510Z,21.7
2023-03-27T07:40:04.674Z,21.7
2023-03-27T07:41:06.857Z,21.7
2023-03-27T07:42:09.004Z,21.7
2023-03-27T07:43:11.198Z,21.7
2023-03-27T07:44:13.132Z,21.7
2023-03-27T07:45:15.058Z,21.7
2023-03-27T07:46:17.127Z,21.7
2023-03-27T07:47:19.393Z,21.7
2023-03-27T07:48:21.546Z,21.7
2023-03-27T07:50:28.733Z,21.7
2023-03-27T07:51:30.928Z,21.7
2023-03-27T07:52:33.050Z,21.7
2023-03-27T07:53:35.452Z,21.7
2023-03-27T07:54:37.600Z,21.7
2023-03-27T07:55:39.774Z,21.7
2023-03-27T07:56:41.884Z,21.7
2023-03-27T07:58:49.185Z,21.7
2023-03-27T07:59:51.295Z,21.7
2023-03-27T08:00:53.443Z,21.7
2023-03-27T08:01:55.574Z,21.7
2023-03-27T08:02:58.131Z,21.7
2023-03-27T08:04:01.100Z,21.7
2023-03-27T08:05:04.104Z,21.7
2023-03-27T08:06:06.667Z,21.7
2023-03-27T08:07:08.718Z,21.7
2023-03-27T08:08:10.652Z,21.7
2023-03-27T08:09:12.582Z,21.7
2023-03-27T08:10:14.555Z,21.7
2023-03-27T08:12:21.424Z,21.7
2023-03-27T08:13:23.552Z,21.7
2023-03-27T08:14:25.315Z,21.7
2023-03-27T08:15:27.507Z,21.7
2023-03-27T08:16:30.536Z,21.7
2023-03-27T08:17:33.096Z,21.7
2023-03-27T08:18:35.280Z,21.7
2023-03-27T08:19:37.368Z,21.7
2023-03-27T08:20:39.262Z,21.7
2023-03-27T08:21:41.261Z,21.7
2023-03-27T08:22:43.267Z,21.7
2023-03-27T08:23:45.428Z,21.7
2023-03-27T08:24:47.373Z,21.7
2023-03-27T08:25:49.479Z,21.7
2023-03-27T08:26:51.429Z,21.7
2023-03-27T08:27:53.553Z,21.7
2023-03-27T08:28:55.502Z,21.7
2023-03-27T08:29:57.729Z,21.7
2023-03-27T08:32:04.635Z,21.7
2023-03-27T08:33:08.410Z,21.7
2023-03-27T08:34:10.720Z,21.7
2023-03-27T08:35:13.008Z,21.7
2023-03-27T08:36:15.608Z,21.7
2023-03-27T08:37:17.816Z,21.7
2023-03-27T08:39:24.992Z,21.7
2023-03-27T08:40:27.425Z,21.7
2023-03-27T08:41:29.809Z,21.7
2023-03-27T08:42:31.582Z,21.7
2023-03-27T08:43:33.766Z,21.7
2023-03-27T08:44:35.897Z,21.7
2023-03-27T08:45:38.012Z,21.7
2023-03-27T08:46:40.237Z,21.7
2023-03-27T08:47:42.248Z,21.7
2023-03-27T08:48:44.448Z,21.7
2023-03-27T08:49:46.362Z,21.7
2023-03-27T08:50:48.485Z,21.7
2023-03-27T08:51:50.603Z,21.7
2023-03-27T08:52:52.568Z,21.7
2023-03-27T08:53:54.766Z,21.7
2023-03-27T08:54:56.869Z,21.7
2023-03-27T08:55:59.615Z,21.7
2023-03-27T08:57:01.944Z,21.7
2023-03-27T08:58:04.334Z,21.7
2023-03-27T08:59:06.036Z,21.7
2023-03-27T09:00:08.208Z,21.7
2023-03-27T09:01:09.951Z,21.7
2023-03-27T09:02:12.147Z,21.7
2023-03-27T09:03:14.739Z,21.7
2023-03-27T09:04:17.189Z,21.7
2023-03-27T09:05:19.404Z,21.7
2023-03-27T09:06:21.343Z,21.7
2023-03-27T09:07:23.434Z,21.7
2023-03-27T09:08:25.203Z,21.7
2023-03-27T09:09:27.647Z,21.7
2023-03-27T09:10:30.409Z,21.7
2023-03-27T09:11:32.955Z,21.7
2023-03-27T09:12:35.453Z,21.7
2023-03-27T09:13:38.825Z,21.7
2023-03-27T09:14:40.987Z,21.7
2023-03-27T09:15:43.211Z,21.7
2023-03-27T09:16:47.690Z,21.7
2023-03-27T09:17:49.947Z,21.7
2023-03-27T09:18:52.038Z,21.7
2023-03-27T09:19:53.950Z,21.7
2023-03-27T09:20:55.730Z,21.7
2023-03-27T09:21:57.845Z,21.7
2023-03-27T09:22:59.790Z,21.7
2023-03-27T09:24:02.035Z,21.7
2023-03-27T09:25:04.431Z,21.7
2023-03-27T09:26:06.266Z,21.7
2023-03-27T09:27:08.643Z,21.7
2023-03-27T09:28:10.797Z,21.7
2023-03-27T09:30:18.035Z,21.7
2023-03-27T09:31:20.145Z,21.7
2023-03-27T09:32:22.077Z,21.7
2023-03-27T09:33:24.298Z,21.7
2023-03-27T09:34:26.296Z,21.7
2023-03-27T09:35:28.568Z,21.7
2023-03-27T09:36:30.907Z,21.7
2023-03-27T09:37:36.833Z,21.7
2023-03-27T09:38:38.859Z,21.7
2023-03-27T09:39:41.052Z,21.7
2023-03-27T09:40:43.214Z,21.7
2023-03-27T09:41:45.325Z,21.7
2023-03-27T09:42:47.473Z,21.7
2023-03-27T09:43:49.589Z,21.7
2023-03-27T09:44:51.536Z,21.7
2023-03-27T09:45:53.660Z,21.7
2023-03-27T09:46:56.451Z,21.7
2023-03-27T09:47:58.682Z,21.7
2023-03-27T09:49:00.830Z,21.7
2023-03-27T09:50:02.942Z,21.7
2023-03-27T09:51:05.064Z,21.7
2023-03-27T09:52:07.208Z,21.7
2023-03-27T09:53:09.344Z,21.7
2023-03-27T09:54:11.539Z,21.7
2023-03-27T09:55:13.732Z,21.7
2023-03-27T09:56:15.874Z,21.7
2023-03-27T09:57:17.991Z,21.7
2023-03-27T09:58:20.403Z,21.7
2023-03-27T09:59:22.498Z,21.7
2023-03-27T10:00:24.685Z,21.7
2023-03-27T10:01:26.978Z,21.7
2023-03-27T10:02:29.007Z,21.7
2023-03-27T10:03:31.548Z,21.7
2023-03-27T10:04:33.795Z,21.7
2023-03-27T10:05:36.018Z,21.7
2023-03-27T10:06:38.158Z,21.7
2023-03-27T10:07:40.173Z,21.7
2023-03-27T10:08:42.134Z,21.7
2023-03-27T10:09:44.179Z,21.7
2023-03-27T10:10:46.427Z,21.7
2023-03-27T10:11:48.578Z,21.7
2023-03-27T10:12:50.683Z,21.7
2023-03-27T10:13:52.888Z,21.7
2023-03-27T10:14:54.856Z,21.7
2023-03-27T10:15:57.033Z,21.7
2023-03-27T10:16:59.328Z,21.7
2023-03-27T10:18:01.762Z,21.7
2023-03-27T10:19:04.095Z,21.7
2023-03-27T10:20:05.663Z,21.7
2023-03-27T10:21:07.818Z,21.7
2023-03-27T10:23:14.775Z,21.7
2023-03-27T10:24:16.952Z,21.7
2023-03-27T10:25:19.170Z,21.7
2023-03-27T10:26:21.347Z,21.7
2023-03-27T10:27:23.499Z,21.6
2023-03-27T10:28:25.662Z,21.7
2023-03-27T10:29:27.624Z,21.7
2023-03-27T10:30:29.802Z,21.7
2023-03-27T10:31:32.139Z,21.7
2023-03-27T10:32:34.661Z,21.7
2023-03-27T10:33:36.890Z,21.7
2023-03-27T10:34:39.017Z,21.7
2023-03-27T10:35:40.847Z,21.7
2023-03-27T10:36:42.833Z,21.7
2023-03-27T10:38:49.924Z,21.7
2023-03-27T10:39:51.902Z,21.7
2023-03-27T10:40:54.041Z,21.7
2023-03-27T10:41:56.252Z,21.7
2023-03-27T10:42:58.422Z,21.7
2023-03-27T10:44:00.557Z,21.7
2023-03-27T10:45:02.764Z,21.7
2023-03-27T10:46:05.171Z,21.7
2023-03-27T10:47:07.538Z,21.7
2023-03-27T10:48:09.761Z,21.7
2023-03-27T10:49:11.952Z,21.7
2023-03-27T10:50:14.342Z,21.7
2023-03-27T10:51:16.465Z,21.7
2023-03-27T10:52:18.267Z,21.7
2023-03-27T10:53:20.496Z,21.7
2023-03-27T10:54:22.868Z,21.7
2023-03-27T10:55:25.557Z,21.7
2023-03-27T10:56:27.468Z,21.7
2023-03-27T10:57:29.586Z,21.7
2023-03-27T10:58:31.762Z,21.7
2023-03-27T11:00:38.908Z,21.7
2023-03-27T11:01:41.245Z,21.7
2023-03-27T11:02:43.750Z,21.7
2023-03-27T11:03:45.655Z,21.7
2023-03-27T11:04:47.818Z,21.7
2023-03-27T11:05:49.699Z,21.7
2023-03-27T11:06:51.835Z,21.7
2023-03-27T11:07:54.018Z,21.7
2023-03-27T11:08:55.939Z,21.7
2023-03-27T11:09:58.100Z,21.7
2023-03-27T11:11:00.386Z,21.7
2023-03-27T11:12:02.339Z,21.7
2023-03-27T11:13:04.391Z,21.7
2023-03-27T11:14:06.709Z,21.7
2023-03-27T11:15:08.711Z,21.7
2023-03-27T11:16:10.646Z,21.7
2023-03-27T11:17:12.913Z,21.7
2023-03-27T11:18:14.921Z,21.7
2023-03-27T11:19:17.020Z,21.7
2023-03-27T11:20:18.924Z,21.7
2023-03-27T11:21:21.077Z,21.7
2023-03-27T11:22:22.828Z,21.7
2023-03-27T11:23:24.772Z,21.7
2023-03-27T11:24:26.869Z,21.7
2023-03-27T11:25:28.794Z,21.7
2023-03-27T11:26:30.768Z,21.7
2023-03-27T11:27:32.879Z,21.7
2023-03-27T11:28:34.680Z,21.7
2023-03-27T11:29:36.924Z,21.7
2023-03-27T11:30:39.070Z,21.7
2023-03-27T11:31:41.524Z,21.7
2023-03-27T11:32:43.913Z,21.7
2023-03-27T11:33:46.037Z,21.7
2023-03-27T11:34:48.142Z,21.7
2023-03-27T11:35:50.230Z,21.7
2023-03-27T11:36:52.565Z,21.7
2023-03-27T11:37:54.679Z,21.7
2023-03-27T11:38:56.862Z,21.7
2023-03-27T11:39:58.975Z,21.7
2023-03-27T11:41:01.126Z,21.7
2023-03-27T11:42:03.312Z,21.7
2023-03-27T11:43:05.421Z,21.7
2023-03-27T11:44:07.438Z,21.7
2023-03-27T11:45:09.664Z,21.7
2023-03-27T11:46:12.064Z,21.7
2023-03-27T11:47:14.281Z,21.7
2023-03-27T11:48:16.403Z,21.7
2023-03-27T11:49:18.697Z,21.7
2023-03-27T11:50:20.817Z,21.7
2023-03-27T11:51:22.933Z,21.7
2023-03-27T11:52:25.023Z,21.7
2023-03-27T11:53:27.185Z,21.7
2023-03-27T11:54:29.092Z,21.7
2023-03-27T11:55:33.239Z,21.7
2023-03-27T11:56:35.575Z,21.7
2023-03-27T11:57:37.599Z,21.7
2023-03-27T11:58:39.785Z,21.7
2023-03-27T11:59:41.762Z,21.7
2023-03-27T12:00:44.068Z,21.7
2023-03-27T12:01:45.950Z,21.7
2023-03-27T12:02:48.531Z,21.7
2023-03-27T12:03:51.667Z,21.7
2023-03-27T12:04:54.301Z,21.7
2023-03-27T12:05:56.382Z,21.7
2023-03-27T12:08:03.463Z,21.7
2023-03-27T12:09:05.566Z,21.7
2023-03-27T12:10:07.728Z,21.7
2023-03-27T12:11:09.674Z,21.7
2023-03-27T12:12:11.767Z,21.7
2023-03-27T12:13:13.671Z,21.7
2023-03-27T12:15:20.391Z,21.7
2023-03-27T12:16:22.704Z,21.7
2023-03-27T12:17:24.883Z,21.7
2023-03-27T12:21:44.667Z,21.7
2023-03-27T12:22:46.794Z,21.7
2023-03-27T12:23:48.907Z,21.7
2023-03-27T12:25:55.991Z,21.7
2023-03-27T12:26:58.102Z,21.7
2023-03-27T12:28:00.198Z,21.7
2023-03-27T12:29:02.108Z,21.7
2023-03-27T12:30:08.423Z,21.7
2023-03-27T12:31:10.698Z,21.7
2023-03-27T12:32:13.108Z,21.7
2023-03-27T12:33:15.322Z,21.7
2023-03-27T12:34:17.493Z,21.7
2023-03-27T12:36:24.661Z,21.7
2023-03-27T12:37:26.834Z,21.7
2023-03-27T12:38:28.944Z,21.7
2023-03-27T12:39:30.907Z,21.7
2023-03-27T12:40:32.439Z,21.7
2023-03-27T12:41:34.355Z,21.7
2023-03-27T12:43:41.233Z,21.7
2023-03-27T12:44:42.963Z,21.7
2023-03-27T12:46:50.246Z,21.7
2023-03-27T12:47:52.635Z,21.7
2023-03-27T12:48:54.853Z,21.7
2023-03-27T12:49:56.802Z,21.7
2023-03-27T12:50:59.591Z,21.7
2023-03-27T12:52:02.912Z,21.7
2023-03-27T12:53:04.837Z,21.7
2023-03-27T12:54:06.551Z,21.7
2023-03-27T12:55:08.705Z,21.7
2023-03-27T12:56:10.657Z,21.7
2023-03-27T12:57:12.922Z,21.7
2023-03-27T12:58:15.910Z,21.7
2023-03-27T12:59:18.385Z,21.7
2023-03-27T13:00:20.394Z,21.7
2023-03-27T13:01:22.729Z,21.7
2023-03-27T13:02:25.381Z,21.7
2023-03-27T13:03:28.137Z,21.7
2023-03-27T13:04:30.353Z,21.7
2023-03-27T13:05:32.286Z,21.7
2023-03-27T13:06:34.008Z,21.6
2023-03-27T13:07:35.946Z,21.7
2023-03-27T13:08:37.659Z,21.6
2023-03-27T13:09:39.367Z,21.7
2023-03-27T13:10:41.497Z,21.7
2023-03-27T13:11:43.401Z,21.7
2023-03-27T13:12:46.109Z,21.6
2023-03-27T13:13:48.055Z,21.7
2023-03-27T13:14:50.000Z,21.6
2023-03-27T13:15:52.229Z,21.7
2023-03-27T13:16:54.309Z,21.7
2023-03-27T13:17:56.433Z,21.6
2023-03-27T13:18:58.587Z,21.7
2023-03-27T13:20:00.606Z,21.6
2023-03-27T13:21:02.705Z,21.7
2023-03-27T13:22:04.666Z,21.6
2023-03-27T13:23:06.830Z,21.6
2023-03-27T13:24:09.647Z,21.6
2023-03-27T13:25:11.744Z,21.6
2023-03-27T13:26:13.486Z,21.6
2023-03-27T13:27:15.594Z,21.6
2023-03-27T13:28:17.480Z,21.7
2023-03-27T13:29:19.410Z,21.7
2023-03-27T13:30:21.518Z,21.7
2023-03-27T13:31:23.757Z,21.7
2023-03-27T13:32:26.228Z,21.6
2023-03-27T13:33:28.505Z,21.6
2023-03-27T13:34:30.748Z,21.7
2023-03-27T13:35:33.013Z,21.7
2023-03-27T13:36:35.054Z,21.7
2023-03-27T13:37:37.734Z,21.7
2023-03-27T13:38:39.696Z,21.7
2023-03-27T13:39:41.882Z,21.7
2023-03-27T13:40:43.985Z,21.7
2023-03-27T13:41:46.132Z,21.7
2023-03-27T13:42:48.271Z,21.7
2023-03-27T13:43:50.185Z,21.7
2023-03-27T13:44:52.085Z,21.7
2023-03-27T13:45:54.026Z,21.7
2023-03-27T13:46:56.628Z,21.7
2023-03-27T13:47:58.774Z,21.7
2023-03-27T13:49:01.071Z,21.7
2023-03-27T13:50:03.232Z,21.7
2023-03-27T13:51:05.432Z,21.7
2023-03-27T13:52:07.337Z,21.7
2023-03-27T13:53:09.473Z,21.7
2023-03-27T13:54:11.595Z,21.7
2023-03-27T13:55:13.304Z,21.7
2023-03-27T13:56:15.411Z,21.7
2023-03-27T13:57:17.769Z,21.6
2023-03-27T13:58:20.016Z,21.7
2023-03-27T13:59:21.736Z,21.6
2023-03-27T14:00:23.849Z,21.6
2023-03-27T14:01:26.199Z,21.7
2023-03-27T14:02:28.748Z,21.6
2023-03-27T14:03:31.311Z,21.6
2023-03-27T14:04:33.802Z,21.6
2023-03-27T14:05:36.011Z,21.6
2023-03-27T14:06:38.311Z,21.6
2023-03-27T14:07:40.309Z,21.7
2023-03-27T14:08:42.499Z,21.7
2023-03-27T14:09:44.713Z,21.6
2023-03-27T14:10:46.608Z,21.6
2023-03-27T14:11:48.720Z,21.6
2023-03-27T14:12:50.648Z,21.6
2023-03-27T14:13:52.848Z,21.7
2023-03-27T14:14:54.932Z,21.7
2023-03-27T14:15:57.669Z,21.6
2023-03-27T14:17:00.208Z,21.6
2023-03-27T14:18:02.319Z,21.6
2023-03-27T14:19:04.385Z,21.6
2023-03-27T14:20:06.596Z,21.6
2023-03-27T14:21:08.873Z,21.6
2023-03-27T14:22:12.628Z,21.6
2023-03-27T14:23:14.769Z,21.6
2023-03-27T14:24:16.699Z,21.6
2023-03-27T14:25:18.829Z,21.6
2023-03-27T14:26:20.667Z,21.6
2023-03-27T14:27:22.830Z,21.6
2023-03-27T14:28:24.960Z,21.6
2023-03-27T14:29:27.122Z,21.6
2023-03-27T14:30:29.324Z,21.6
2023-03-27T14:31:31.461Z,21.6